createdAt,value
2023-04-26T00:00:35.486Z,101001.66
2023-04-26T00:03:02.326Z,101009.72
2023-04-26T00:05:29.718Z,100998.97
2023-04-26T00:07:56.802Z,100990.44
2023-04-26T00:10:23.507Z,101007.69
2023-04-26T00:12:50.113Z,100979.53
2023-04-26T00:15:16.795Z,101016.44
2023-04-26T00:17:44.072Z,101016.44
2023-04-26T00:20:13.241Z,101015.28
2023-04-26T00:22:40.119Z,101002.16
2023-04-26T00:25:07.283Z,101000.16
2023-04-26T00:27:33.907Z,101013.56
2023-04-26T00:30:00.652Z,101017.44
2023-04-26T00:32:27.340Z,101009.22
2023-04-26T00:34:53.995Z,101010.72
2023-04-26T00:37:21.595Z,101013.22
2023-04-26T00:39:48.227Z,101016.09
2023-04-26T00:42:14.871Z,101026.16
2023-04-26T00:44:41.478Z,101016.94
2023-04-26T00:47:08.110Z,101024.31
2023-04-26T00:49:34.769Z,101025.16
2023-04-26T00:52:01.570Z,101015.25
2023-04-26T00:54:28.958Z,100993.09
2023-04-26T00:56:56.354Z,101018.13
2023-04-26T00:59:23.760Z,101021.13
2023-04-26T01:01:50.377Z,101008.53
2023-04-26T01:04:17.884Z,101017.78
2023-04-26T01:06:52.170Z,101017.44
2023-04-26T01:09:19.263Z,101034.88
2023-04-26T01:11:47.270Z,101030.38
2023-04-26T01:14:15.342Z,101025.34
2023-04-26T01:16:42.246Z,101020.44
2023-04-26T01:19:13.421Z,101029.84
2023-04-26T01:21:40.876Z,101039.59
2023-04-26T01:24:10.163Z,101020.78
2023-04-26T01:26:43.894Z,101037.56
2023-04-26T01:29:18.160Z,101044.97
2023-04-26T01:31:45.277Z,101039.25
2023-04-26T01:34:12.414Z,101043.94
2023-04-26T01:36:39.317Z,101041.59
2023-04-26T01:39:06.391Z,101053.34
2023-04-26T01:41:33.751Z,101049.97
2023-04-26T01:44:01.396Z,101045.28
2023-04-26T01:46:28.177Z,101053.84
2023-04-26T01:48:55.254Z,101033.72
2023-04-26T01:51:21.941Z,101045.28
2023-04-26T01:53:48.651Z,101022.47
2023-04-26T01:56:16.165Z,101048.97
2023-04-26T01:58:42.997Z,101037.09
2023-04-26T02:01:10.232Z,101026.16
2023-04-26T02:03:37.151Z,101043.28
2023-04-26T02:06:04.988Z,101033.53
2023-04-26T02:08:31.625Z,101049.66
2023-04-26T02:10:58.507Z,101043.44
2023-04-26T02:13:28.561Z,101044.28
2023-04-26T02:15:55.836Z,101036.56
2023-04-26T02:18:22.684Z,101037.75
2023-04-26T02:20:49.529Z,101046.47
2023-04-26T02:23:17.472Z,101055.34
2023-04-26T02:25:48.846Z,101057.53
2023-04-26T02:28:16.399Z,101055.19
2023-04-26T02:30:43.496Z,101052.50
2023-04-26T02:33:10.773Z,101056.69
2023-04-26T02:35:39.816Z,101055.00
2023-04-26T02:38:06.832Z,101043.59
2023-04-26T02:40:33.700Z,101057.34
2023-04-26T02:43:00.420Z,101066.75
2023-04-26T02:45:27.220Z,101068.25
2023-04-26T02:47:53.951Z,101068.25
2023-04-26T02:50:21.874Z,101065.09
2023-04-26T02:52:48.504Z,101058.88
2023-04-26T02:55:15.345Z,101065.41
2023-04-26T02:57:42.015Z,101056.69
2023-04-26T03:00:09.466Z,101069.63
2023-04-26T03:02:36.547Z,101062.41
2023-04-26T03:05:03.877Z,101059.03
2023-04-26T03:07:31.497Z,101057.34
2023-04-26T03:09:58.189Z,101037.56
2023-04-26T03:12:27.155Z,101061.72
2023-04-26T03:14:53.961Z,101060.34
2023-04-26T03:17:20.498Z,101062.38
2023-04-26T03:19:47.242Z,101060.69
2023-04-26T03:22:16.408Z,101051.97
2023-04-26T03:24:44.662Z,101047.81
2023-04-26T03:27:11.330Z,101053.16
2023-04-26T03:29:38.011Z,101065.41
2023-04-26T03:32:05.391Z,101061.41
2023-04-26T03:34:32.206Z,101067.75
2023-04-26T03:36:58.995Z,101064.56
2023-04-26T03:39:28.381Z,101067.06
2023-04-26T03:41:55.074Z,101063.38
2023-04-26T03:44:21.830Z,101056.03
2023-04-26T03:46:48.680Z,101078.81
2023-04-26T03:49:15.341Z,101071.44
2023-04-26T03:51:42.990Z,101072.44
2023-04-26T03:54:09.605Z,101061.03
2023-04-26T03:56:37.095Z,101069.28
2023-04-26T03:59:03.683Z,101075.66
2023-04-26T04:01:30.406Z,101077.50
2023-04-26T04:03:57.478Z,101077.50
2023-04-26T04:06:24.248Z,101075.47
2023-04-26T04:08:51.914Z,101072.44
2023-04-26T04:11:18.785Z,101080.88
2023-04-26T04:13:46.131Z,101080.19
2023-04-26T04:16:12.826Z,101077.53
2023-04-26T04:18:39.570Z,101075.50
2023-04-26T04:21:06.800Z,101080.34
2023-04-26T04:23:33.442Z,101089.94
2023-04-26T04:26:00.130Z,101084.88
2023-04-26T04:28:27.272Z,101079.50
2023-04-26T04:30:53.932Z,101085.53
2023-04-26T04:33:20.575Z,101094.47
2023-04-26T04:35:47.174Z,101092.94
2023-04-26T04:38:14.345Z,101094.63
2023-04-26T04:40:41.283Z,101094.44
2023-04-26T04:43:07.993Z,101105.38
2023-04-26T04:45:35.559Z,101095.97
2023-04-26T04:48:02.230Z,101100.84
2023-04-26T04:50:29.343Z,101108.41
2023-04-26T04:52:56.443Z,101092.63
2023-04-26T04:55:23.090Z,101108.25
2023-04-26T04:57:49.659Z,101088.56
2023-04-26T05:00:16.844Z,101100.81
2023-04-26T05:02:43.603Z,101115.41
2023-04-26T05:05:11.313Z,101121.47
2023-04-26T05:07:38.068Z,101124.00
2023-04-26T05:10:05.230Z,101129.72
2023-04-26T05:12:32.092Z,101109.06
2023-04-26T05:14:58.672Z,101126.84
2023-04-26T05:17:25.518Z,101124.34
2023-04-26T05:19:54.227Z,101122.81
2023-04-26T05:22:22.553Z,101127.19
2023-04-26T05:24:49.666Z,101128.34
2023-04-26T05:27:16.545Z,101134.69
2023-04-26T05:29:43.239Z,101129.91
2023-04-26T05:32:09.995Z,101127.91
2023-04-26T05:34:38.601Z,101121.13
2023-04-26T05:37:05.099Z,101136.44
2023-04-26T05:39:31.988Z,101142.28
2023-04-26T05:41:58.599Z,101140.53
2023-04-26T05:44:28.387Z,101146.28
2023-04-26T05:46:56.372Z,101142.31
2023-04-26T05:49:23.025Z,101145.06
2023-04-26T05:51:49.763Z,101151.97
2023-04-26T05:54:16.409Z,101139.84
2023-04-26T05:56:43.048Z,101141.97
2023-04-26T05:59:09.908Z,101141.88
2023-04-26T06:01:36.665Z,101120.88
2023-04-26T06:04:03.682Z,101140.13
2023-04-26T06:06:30.715Z,101133.25
2023-04-26T06:08:57.308Z,101148.03
2023-04-26T06:11:24.013Z,101137.56
2023-04-26T06:13:50.982Z,101151.63
2023-04-26T06:16:18.198Z,101150.78
2023-04-26T06:18:44.899Z,101140.81
2023-04-26T06:21:11.595Z,101134.00
2023-04-26T06:23:38.146Z,101153.97
2023-04-26T06:26:04.816Z,101145.59
2023-04-26T06:28:31.585Z,101147.31
2023-04-26T06:30:58.380Z,101152.28
2023-04-26T06:33:28.239Z,101142.91
2023-04-26T06:35:57.226Z,101150.78
2023-04-26T06:38:23.842Z,101142.69
2023-04-26T06:40:50.536Z,101153.03
2023-04-26T06:43:17.190Z,101158.69
2023-04-26T06:45:43.892Z,101157.47
2023-04-26T06:48:10.579Z,101160.72
2023-04-26T06:50:40.279Z,101152.84
2023-04-26T06:53:08.401Z,101162.34
2023-04-26T06:55:35.212Z,101159.50
2023-04-26T06:58:02.407Z,101167.41
2023-04-26T07:00:30.081Z,101145.78
2023-04-26T07:02:57.234Z,101145.09
2023-04-26T07:05:24.238Z,101164.16
2023-04-26T07:07:50.978Z,101167.84
2023-04-26T07:10:17.960Z,101163.81
2023-04-26T07:12:44.977Z,101162.47
2023-04-26T07:15:12.050Z,101179.84
2023-04-26T07:17:38.823Z,101170.78
2023-04-26T07:20:07.459Z,101147.72
2023-04-26T07:22:34.437Z,101153.03
2023-04-26T07:25:01.526Z,101181.78
2023-04-26T07:27:28.144Z,101188.00
2023-04-26T07:29:56.926Z,101179.41
2023-04-26T07:32:23.786Z,101181.63
2023-04-26T07:34:50.453Z,101189.97
2023-04-26T07:37:18.022Z,101180.38
2023-04-26T07:39:44.636Z,101188.97
2023-04-26T07:42:11.317Z,101189.44
2023-04-26T07:44:39.938Z,101195.09
2023-04-26T07:47:12.671Z,101197.78
2023-04-26T07:49:39.313Z,101186.56
2023-04-26T07:52:08.240Z,101204.09
2023-04-26T07:54:35.455Z,101195.72
2023-04-26T07:57:02.075Z,101184.16
2023-04-26T07:59:28.684Z,101195.69
2023-04-26T08:01:55.362Z,101209.47
2023-04-26T08:04:32.704Z,101217.38
2023-04-26T08:07:02.003Z,101215.16
2023-04-26T08:09:30.735Z,101213.84
2023-04-26T08:11:57.772Z,101200.81
2023-04-26T08:14:26.509Z,101208.94
2023-04-26T08:16:53.749Z,101214.03
2023-04-26T08:19:22.040Z,101196.91
2023-04-26T08:21:49.649Z,101211.03
2023-04-26T08:24:17.257Z,101210.59
2023-04-26T08:26:43.890Z,101214.44
2023-04-26T08:29:10.667Z,101223.16
2023-04-26T08:31:38.063Z,101205.22
2023-04-26T08:34:06.133Z,101210.59
2023-04-26T08:36:36.587Z,101239.38
2023-04-26T08:39:05.067Z,101233.44
2023-04-26T08:41:40.345Z,101229.97
2023-04-26T08:44:08.473Z,101235.06
2023-04-26T08:46:56.186Z,101221.44
2023-04-26T08:49:36.113Z,101236.38
2023-04-26T08:52:04.743Z,101235.97
2023-04-26T08:54:32.600Z,101250.34
2023-04-26T08:56:59.787Z,101247.44
2023-04-26T08:59:26.784Z,101238.75
2023-04-26T09:01:53.835Z,101238.59
2023-04-26T09:04:20.707Z,101233.28
2023-04-26T09:06:50.013Z,101244.09
2023-04-26T09:09:22.017Z,101237.00
2023-04-26T09:11:53.069Z,101235.13
2023-04-26T09:14:19.801Z,101241.22
2023-04-26T09:16:46.621Z,101230.03
2023-04-26T09:19:13.363Z,101240.44
2023-04-26T09:21:44.853Z,101243.94
2023-04-26T09:24:11.925Z,101234.66
2023-04-26T09:26:39.140Z,101224.91
2023-04-26T09:29:13.774Z,101247.09
2023-04-26T09:31:50.013Z,101238.09
2023-04-26T09:34:17.047Z,101241.66
2023-04-26T09:37:01.481Z,101232.88
2023-04-26T09:39:33.149Z,101242.84
2023-04-26T09:42:00.155Z,101241.97
2023-04-26T09:44:27.166Z,101253.19
2023-04-26T09:47:02.487Z,101250.88
2023-04-26T09:49:44.722Z,101251.06
2023-04-26T09:52:11.407Z,101252.06
2023-04-26T09:54:43.196Z,101260.59
2023-04-26T09:57:11.900Z,101251.03
2023-04-26T09:59:48.157Z,101259.81
2023-04-26T10:02:16.284Z,101261.34
2023-04-26T10:04:47.038Z,101251.69
2023-04-26T10:07:15.624Z,101260.03
2023-04-26T10:09:42.756Z,101262.34
2023-04-26T10:12:11.317Z,101259.19
2023-04-26T10:14:38.147Z,101268.94
2023-04-26T10:17:05.838Z,101256.88
2023-04-26T10:19:35.111Z,101254.69
2023-04-26T10:22:09.354Z,101256.34
2023-04-26T10:24:37.225Z,101255.81
2023-04-26T10:27:04.665Z,101241.81
2023-04-26T10:29:56.752Z,101256.69
2023-04-26T10:32:24.159Z,101236.16
2023-04-26T10:35:12.686Z,101254.59
2023-04-26T10:38:01.145Z,101263.19
2023-04-26T10:40:39.378Z,101253.38
2023-04-26T10:43:08.792Z,101250.66
2023-04-26T10:45:36.715Z,101249.41
2023-04-26T10:48:22.976Z,101266.94
2023-04-26T10:51:02.047Z,101268.69
2023-04-26T10:53:53.815Z,101258.72
2023-04-26T10:56:26.479Z,101255.34
2023-04-26T11:01:40.828Z,101258.78
2023-04-26T11:04:08.626Z,101256.09
2023-04-26T11:06:52.432Z,101255.03
2023-04-26T11:09:41.424Z,101260.81
2023-04-26T11:12:12.858Z,101258.16
2023-04-26T11:14:41.841Z,101245.72
2023-04-26T11:17:10.191Z,101254.19
2023-04-26T11:19:37.018Z,101257.97
2023-04-26T11:22:06.528Z,101259.41
2023-04-26T11:24:36.815Z,101259.22
2023-04-26T11:27:12.585Z,101249.38
2023-04-26T11:29:40.417Z,101259.53
2023-04-26T11:32:07.555Z,101252.94
2023-04-26T11:34:35.690Z,101260.91
2023-04-26T11:37:04.922Z,101254.22
2023-04-26T11:39:36.180Z,101254.00
2023-04-26T11:42:10.725Z,101257.75
2023-04-26T11:44:38.169Z,101257.06
2023-04-26T11:47:06.800Z,101261.66
2023-04-26T11:49:36.410Z,101265.66
2023-04-26T11:52:04.995Z,101254.63
2023-04-26T11:54:33.819Z,101262.56
2023-04-26T11:57:01.269Z,101258.34
2023-04-26T11:59:32.362Z,101265.50
2023-04-26T12:01:59.165Z,101261.31
2023-04-26T12:04:30.674Z,101268.00
2023-04-26T12:06:58.904Z,101267.56
2023-04-26T12:09:29.901Z,101265.09
2023-04-26T12:12:06.321Z,101275.75
2023-04-26T12:14:38.014Z,101278.63
2023-04-26T12:17:06.455Z,101299.75
2023-04-26T12:19:34.544Z,101295.22
2023-04-26T12:22:01.223Z,101302.09
2023-04-26T12:24:33.392Z,101306.88
2023-04-26T12:27:02.409Z,101299.84
2023-04-26T12:29:30.837Z,101301.50
2023-04-26T12:32:01.696Z,101308.38
2023-04-26T12:34:28.617Z,101304.59
2023-04-26T12:36:56.045Z,101303.72
2023-04-26T12:39:22.863Z,101300.06
2023-04-26T12:41:49.592Z,101305.25
2023-04-26T12:44:16.317Z,101305.06
2023-04-26T12:46:43.239Z,101303.75
2023-04-26T12:49:10.064Z,101304.00
2023-04-26T12:51:36.688Z,101302.56
2023-04-26T12:54:03.661Z,101308.31
2023-04-26T12:56:30.491Z,101309.28
2023-04-26T12:58:57.276Z,101306.19
2023-04-26T13:01:24.095Z,101309.78
2023-04-26T13:03:51.146Z,101307.84
2023-04-26T13:06:18.195Z,101309.78
2023-04-26T13:08:45.142Z,101296.91
2023-04-26T13:11:11.774Z,101296.19
2023-04-26T13:13:43.935Z,101295.66
2023-04-26T13:16:12.589Z,101302.53
2023-04-26T13:18:40.495Z,101291.72
2023-04-26T13:21:07.222Z,101297.00
2023-04-26T13:23:33.843Z,101306.50
2023-04-26T13:26:00.514Z,101311.97
2023-04-26T13:28:30.257Z,101321.25
2023-04-26T13:30:59.696Z,101314.78
2023-04-26T13:33:29.395Z,101312.94
2023-04-26T13:35:56.985Z,101324.78
2023-04-26T13:38:24.296Z,101328.97
2023-04-26T13:40:52.263Z,101323.44
2023-04-26T13:43:19.090Z,101321.38
2023-04-26T13:45:46.006Z,101338.59
2023-04-26T13:48:12.919Z,101337.88
2023-04-26T13:50:39.904Z,101330.75
2023-04-26T13:53:06.699Z,101334.28
2023-04-26T13:55:33.457Z,101357.44
2023-04-26T13:58:00.138Z,101334.16
2023-04-26T14:00:27.322Z,101351.00
2023-04-26T14:02:54.405Z,101328.66
2023-04-26T14:05:21.647Z,101334.91
2023-04-26T14:07:48.377Z,101332.34
2023-04-26T14:10:15.854Z,101315.34
2023-04-26T14:12:42.806Z,101323.53
2023-04-26T14:15:09.969Z,101324.38
2023-04-26T14:17:37.100Z,101334.44
2023-04-26T14:20:05.229Z,101323.34
2023-04-26T14:22:31.943Z,101332.91
2023-04-26T14:25:00.354Z,101327.59
2023-04-26T14:27:27.012Z,101313.47
2023-04-26T14:29:54.085Z,101326.13
2023-04-26T14:32:21.916Z,101339.00
2023-04-26T14:34:48.577Z,101326.50
2023-04-26T14:37:15.352Z,101335.06
2023-04-26T14:39:42.703Z,101340.97
2023-04-26T14:42:09.338Z,101346.94
2023-04-26T14:44:38.395Z,101344.50
2023-04-26T14:47:05.069Z,101355.31
2023-04-26T14:49:31.901Z,101359.19
2023-04-26T14:51:58.512Z,101354.72
2023-04-26T14:54:26.536Z,101378.41
2023-04-26T14:56:53.762Z,101386.97
2023-04-26T14:59:20.464Z,101384.41
2023-04-26T15:01:47.208Z,101379.97
2023-04-26T15:04:14.158Z,101389.03
2023-04-26T15:06:41.262Z,101396.44
2023-04-26T15:09:08.829Z,101403.88
2023-04-26T15:11:35.546Z,101395.88
2023-04-26T15:14:02.246Z,101381.81
2023-04-26T15:16:28.883Z,101384.94
2023-04-26T15:18:56.084Z,101381.22
2023-04-26T15:21:22.785Z,101385.19
2023-04-26T15:23:49.448Z,101381.38
2023-04-26T15:26:16.208Z,101380.19
2023-04-26T15:28:42.802Z,101371.22
2023-04-26T15:31:11.047Z,101380.84
2023-04-26T15:33:37.845Z,101377.78
2023-04-26T15:36:05.445Z,101365.13
2023-04-26T15:38:34.124Z,101375.63
2023-04-26T15:41:01.100Z,101367.72
2023-04-26T15:43:27.939Z,101376.66
2023-04-26T15:45:55.193Z,101375.91
2023-04-26T15:48:22.052Z,101366.53
2023-04-26T15:50:48.708Z,101371.63
2023-04-26T15:53:16.362Z,101385.09
2023-04-26T15:55:45.105Z,101385.47
2023-04-26T15:58:11.909Z,101397.91
2023-04-26T16:00:38.905Z,101393.56
2023-04-26T16:03:05.667Z,101395.34
2023-04-26T16:05:32.488Z,101394.34
2023-04-26T16:07:59.822Z,101403.34
2023-04-26T16:10:26.611Z,101386.91
2023-04-26T16:12:53.318Z,101395.13
2023-04-26T16:15:20.042Z,101383.47
2023-04-26T16:17:46.748Z,101379.56
2023-04-26T16:20:13.537Z,101383.47
2023-04-26T16:22:40.388Z,101366.78
2023-04-26T16:25:09.020Z,101383.03
2023-04-26T16:27:35.912Z,101384.13
2023-04-26T16:30:04.109Z,101373.41
2023-04-26T16:32:31.499Z,101372.44
2023-04-26T16:34:58.278Z,101376.38
2023-04-26T16:37:27.040Z,101388.50
2023-04-26T16:39:56.120Z,101390.09
2023-04-26T16:42:23.063Z,101389.19
2023-04-26T16:44:49.690Z,101388.03
2023-04-26T16:47:17.489Z,101392.31
2023-04-26T16:49:44.088Z,101386.09
2023-04-26T16:52:10.806Z,101400.25
2023-04-26T16:54:37.641Z,101402.47
2023-04-26T16:57:04.578Z,101392.31
2023-04-26T16:59:31.197Z,101402.56
2023-04-26T17:02:00.029Z,101399.94
2023-04-26T17:04:27.430Z,101418.56
2023-04-26T17:06:57.238Z,101407.47
2023-04-26T17:09:23.980Z,101413.91
2023-04-26T17:11:50.995Z,101424.09
2023-04-26T17:14:17.719Z,101424.75
2023-04-26T17:16:44.597Z,101414.84
2023-04-26T17:19:12.075Z,101415.72
2023-04-26T17:21:38.659Z,101407.47
2023-04-26T17:24:05.959Z,101405.00
2023-04-26T17:26:32.578Z,101399.38
2023-04-26T17:28:59.367Z,101408.81
2023-04-26T17:31:28.786Z,101404.94
2023-04-26T17:33:56.609Z,101388.06
2023-04-26T17:36:23.506Z,101400.06
2023-04-26T17:38:50.144Z,101398.94
2023-04-26T17:41:17.792Z,101388.84
2023-04-26T17:43:47.213Z,101405.75
2023-04-26T17:46:14.197Z,101406.69
2023-04-26T17:48:45.293Z,101401.88
2023-04-26T17:51:12.177Z,101405.53
2023-04-26T17:53:39.045Z,101400.28
2023-04-26T17:56:07.684Z,101402.25
2023-04-26T17:58:34.406Z,101406.50
2023-04-26T18:01:01.223Z,101404.41
2023-04-26T18:03:31.506Z,101399.25
2023-04-26T18:05:58.265Z,101410.72
2023-04-26T18:08:32.759Z,101409.03
2023-04-26T18:11:06.391Z,101413.97
2023-04-26T18:13:35.379Z,101413.25
2023-04-26T18:16:03.455Z,101418.31
2023-04-26T18:18:30.099Z,101420.16
2023-04-26T18:20:57.768Z,101406.69
2023-04-26T18:23:24.343Z,101413.25
2023-04-26T18:25:51.110Z,101424.34
2023-04-26T18:28:17.799Z,101427.53
2023-04-26T18:30:45.466Z,101421.22
2023-04-26T18:33:12.300Z,101428.81
2023-04-26T18:35:44.927Z,101433.88
2023-04-26T18:38:11.635Z,101433.25
2023-04-26T18:40:43.716Z,101437.78
2023-04-26T18:43:10.636Z,101425.84
2023-04-26T18:45:37.250Z,101429.38
2023-04-26T18:48:04.583Z,101440.47
2023-04-26T18:50:31.288Z,101442.84
2023-04-26T18:52:58.404Z,101445.19
2023-04-26T18:55:26.402Z,101456.63
2023-04-26T18:57:53.110Z,101438.44
2023-04-26T19:00:19.990Z,101443.19
2023-04-26T19:02:46.818Z,101450.94
2023-04-26T19:05:13.730Z,101452.94
2023-04-26T19:07:41.405Z,101450.41
2023-04-26T19:10:08.521Z,101442.16
2023-04-26T19:12:35.146Z,101457.97
2023-04-26T19:15:02.903Z,101460.63
2023-04-26T19:17:31.759Z,101458.06
2023-04-26T19:19:58.392Z,101463.13
2023-04-26T19:22:27.313Z,101466.78
2023-04-26T19:24:53.959Z,101452.47
2023-04-26T19:27:20.678Z,101464.91
2023-04-26T19:29:47.332Z,101462.88
2023-04-26T19:32:14.553Z,101466.53
2023-04-26T19:34:41.182Z,101471.63
2023-04-26T19:37:07.891Z,101472.47
2023-04-26T19:39:34.590Z,101466.25
2023-04-26T19:42:01.638Z,101469.44
2023-04-26T19:44:28.453Z,101456.34
2023-04-26T19:46:55.522Z,101473.38
2023-04-26T19:49:22.308Z,101455.06
2023-04-26T19:51:48.954Z,101481.19
2023-04-26T19:54:17.894Z,101473.94
2023-04-26T19:56:44.588Z,101473.81
2023-04-26T19:59:11.262Z,101467.06
2023-04-26T20:01:38.138Z,101476.31
2023-04-26T20:04:04.847Z,101465.38
2023-04-26T20:06:33.140Z,101475.47
2023-04-26T20:08:59.744Z,101479.53
2023-04-26T20:11:26.790Z,101473.47
2023-04-26T20:13:53.695Z,101470.09
2023-04-26T20:16:20.269Z,101473.47
2023-04-26T20:18:47.101Z,101460.53
2023-04-26T20:21:14.523Z,101475.81
2023-04-26T20:23:41.214Z,101486.44
2023-04-26T20:26:08.949Z,101481.72
2023-04-26T20:28:35.968Z,101480.34
2023-04-26T20:31:02.778Z,101472.09
2023-04-26T20:33:29.548Z,101489.94
2023-04-26T20:35:59.382Z,101491.44
2023-04-26T20:38:29.041Z,101486.41
2023-04-26T20:40:56.272Z,101494.97
2023-04-26T20:43:23.297Z,101498.84
2023-04-26T20:45:51.018Z,101486.91
2023-04-26T20:48:17.776Z,101482.81
2023-04-26T20:50:44.497Z,101494.44
2023-04-26T20:53:11.261Z,101499.28
2023-04-26T20:55:37.915Z,101502.47
2023-04-26T20:58:04.587Z,101494.88
2023-04-26T21:00:31.297Z,101492.53
2023-04-26T21:02:58.018Z,101504.00
2023-04-26T21:05:27.291Z,101508.50
2023-04-26T21:07:53.977Z,101505.63
2023-04-26T21:10:20.698Z,101508.84
2023-04-26T21:12:47.369Z,101505.97
2023-04-26T21:15:14.832Z,101506.81
2023-04-26T21:17:41.447Z,101507.00
2023-04-26T21:20:08.488Z,101500.59
2023-04-26T21:22:36.390Z,101507.97
2023-04-26T21:25:03.839Z,101506.09
2023-04-26T21:27:30.607Z,101511.31
2023-04-26T21:29:58.227Z,101519.38
2023-04-26T21:32:25.300Z,101525.84
2023-04-26T21:34:51.931Z,101528.72
2023-04-26T21:37:18.573Z,101521.47
2023-04-26T21:39:45.183Z,101528.69
2023-04-26T21:42:12.151Z,101520.94
2023-04-26T21:44:38.852Z,101525.75
2023-04-26T21:47:05.664Z,101519.19
2023-04-26T21:49:32.359Z,101542.69
2023-04-26T21:51:58.983Z,101540.44
2023-04-26T21:54:26.165Z,101525.91
2023-04-26T21:56:52.758Z,101532.13
2023-04-26T21:59:19.743Z,101536.66
2023-04-26T22:01:46.493Z,101541.66
2023-04-26T22:04:13.287Z,101547.41
2023-04-26T22:06:40.112Z,101544.91
2023-04-26T22:09:10.024Z,101538.22
2023-04-26T22:11:36.918Z,101542.06
2023-04-26T22:14:03.546Z,101547.44
2023-04-26T22:16:30.142Z,101544.06
2023-04-26T22:18:56.786Z,101554.50
2023-04-26T22:21:23.629Z,101553.44
2023-04-26T22:23:50.437Z,101547.88
2023-04-26T22:26:17.088Z,101553.41
2023-04-26T22:28:43.711Z,101562.09
2023-04-26T22:31:10.418Z,101551.28
2023-04-26T22:33:37.202Z,101538.94
2023-04-26T22:36:04.624Z,101564.88
2023-04-26T22:38:31.401Z,101569.06
2023-04-26T22:40:58.012Z,101568.03
2023-04-26T22:43:26.680Z,101572.94
2023-04-26T22:45:53.259Z,101577.00
2023-04-26T22:48:19.983Z,101568.03
2023-04-26T22:50:49.866Z,101568.34
2023-04-26T22:53:16.928Z,101563.66
2023-04-26T22:55:43.916Z,101571.72
2023-04-26T22:58:10.951Z,101566.88
2023-04-26T23:00:37.736Z,101568.34
2023-04-26T23:03:04.490Z,101565.78
2023-04-26T23:05:32.170Z,101568.59
2023-04-26T23:07:58.853Z,101561.13
2023-04-26T23:10:25.693Z,101555.53
2023-04-26T23:12:53.000Z,101560.53
2023-04-26T23:15:19.837Z,101571.75
2023-04-26T23:17:46.923Z,101546.88
2023-04-26T23:20:13.668Z,101565.59
2023-04-26T23:22:41.335Z,101568.22
2023-04-26T23:25:09.058Z,101567.44
2023-04-26T23:27:36.804Z,101565.97
2023-04-26T23:30:05.094Z,101575.31
2023-04-26T23:32:32.933Z,101575.38
2023-04-26T23:34:59.671Z,101569.41
2023-04-26T23:37:31.107Z,101573.53
2023-04-26T23:39:57.789Z,101579.44
2023-04-26T23:42:24.442Z,101576.59
2023-04-26T23:44:51.217Z,101579.44
2023-04-26T23:47:18.035Z,101578.81
2023-04-26T23:49:44.652Z,101582.09
2023-04-26T23:52:11.536Z,101580.00
2023-04-26T23:54:38.121Z,101580.28
2023-04-26T23:57:04.812Z,101581.44
2023-04-26T23:59:31.496Z,101577.88
